Time;durP1;ratioP1;P1;durP2;ratioP2;P2;SDS_P1;SDS_P2;PMS_P1;PMS_P2;Temp;Humidity;BMP_temperature;BMP_pressure;BME280_temperature;BME280_humidity;BME280_pressure;Samples;Min_cycle;Max_cycle;Signal;HPM_P1;HPM_P2
2023/06/28 00:00:13;;;;;;;8.27;3.05;;;14.30;99.90;;;;;;5109652;28;20061;-61
2023/06/28 00:02:39;;;;;;;5.60;2.92;;;14.30;99.90;;;;;;5120985;27;20129;-62
2023/06/28 00:05:09;;;;;;;6.40;2.85;;;14.30;99.90;;;;;;5124749;27;20105;-62
2023/06/28 00:07:35;;;;;;;7.22;3.20;;;14.30;99.90;;;;;;5124483;27;20042;-62
2023/06/28 00:10:02;;;;;;;8.13;3.08;;;14.30;99.90;;;;;;5144755;27;20030;-62
2023/06/28 00:12:32;;;;;;;7.97;3.03;;;14.30;99.90;;;;;;5146743;27;20039;-61
2023/06/28 00:14:58;;;;;;;6.32;3.10;;;14.30;99.90;;;;;;5143538;27;20031;-62
2023/06/28 00:17:28;;;;;;;7.75;3.30;;;14.30;99.90;;;;;;5121848;27;20027;-62
2023/06/28 00:20:01;;;;;;;8.10;3.33;;;14.30;99.90;;;;;;5122798;27;20039;-61
2023/06/28 00:22:30;;;;;;;6.15;3.13;;;14.30;99.90;;;;;;5143845;27;20396;-62
2023/06/28 00:24:57;;;;;;;7.45;3.40;;;14.30;99.90;;;;;;5123644;27;20043;-63
2023/06/28 00:27:23;;;;;;;7.47;3.05;;;14.20;99.90;;;;;;5120783;27;20042;-62
2023/06/28 00:29:48;;;;;;;5.50;3.47;;;14.20;99.90;;;;;;5127393;27;20062;-62
2023/06/28 00:32:14;;;;;;;8.00;3.28;;;14.30;99.90;;;;;;5108144;27;20043;-62
2023/06/28 00:34:40;;;;;;;7.55;2.90;;;14.20;99.90;;;;;;5145761;27;20087;-62
2023/06/28 00:37:05;;;;;;;4.95;2.70;;;14.20;99.90;;;;;;5148020;27;20063;-62
2023/06/28 00:39:31;;;;;;;5.90;3.15;;;14.20;99.90;;;;;;5154845;27;20035;-61
2023/06/28 00:41:57;;;;;;;5.50;3.20;;;14.20;99.90;;;;;;5123347;27;20047;-61
2023/06/28 00:44:23;;;;;;;6.78;2.97;;;14.20;99.90;;;;;;5130000;27;20077;-63
2023/06/28 00:46:49;;;;;;;6.15;2.80;;;14.20;99.90;;;;;;5150837;27;20071;-62
2023/06/28 00:49:16;;;;;;;6.47;3.08;;;14.20;99.90;;;;;;5128778;27;20081;-62
2023/06/28 00:51:43;;;;;;;6.20;3.10;;;14.20;99.90;;;;;;5123911;27;20035;-62
2023/06/28 00:54:09;;;;;;;5.97;2.95;;;14.20;99.90;;;;;;5146183;27;20031;-61
2023/06/28 00:56:37;;;;;;;6.32;2.80;;;14.20;99.90;;;;;;5119204;27;20049;-62
2023/06/28 00:59:03;;;;;;;6.68;3.30;;;14.20;99.90;;;;;;5124638;27;20049;-61
2023/06/28 01:01:30;;;;;;;6.45;3.10;;;14.20;99.90;;;;;;5128683;27;20046;-62
2023/06/28 01:03:56;;;;;;;5.75;3.03;;;14.10;99.90;;;;;;5124043;27;20051;-62
2023/06/28 01:06:24;;;;;;;9.98;3.38;;;14.10;99.90;;;;;;5129414;27;20126;-62
2023/06/28 01:08:51;;;;;;;6.60;3.22;;;14.10;99.90;;;;;;5121625;27;20051;-61
2023/06/28 01:11:18;;;;;;;6.82;3.53;;;14.10;99.90;;;;;;5124490;27;20122;-61
2023/06/28 01:13:46;;;;;;;7.03;3.40;;;14.10;99.90;;;;;;5151980;27;20434;-63
2023/06/28 01:16:12;;;;;;;9.60;3.85;;;14.10;99.90;;;;;;5127439;27;20058;-61
2023/06/28 01:18:38;;;;;;;7.78;4.00;;;14.10;99.90;;;;;;5145906;27;20046;-61
2023/06/28 01:21:07;;;;;;;8.38;3.45;;;14.10;99.90;;;;;;5147122;27;20039;-62
2023/06/28 01:23:33;;;;;;;7.13;3.35;;;14.10;99.90;;;;;;5121842;27;20079;-62
2023/06/28 01:26:02;;;;;;;5.35;3.20;;;14.00;99.90;;;;;;5147778;27;20146;-62
2023/06/28 01:28:30;;;;;;;8.07;3.60;;;14.00;99.90;;;;;;5109663;27;20038;-62
2023/06/28 01:30:57;;;;;;;12.50;5.35;;;14.00;99.90;;;;;;5130873;27;20054;-61
2023/06/28 01:33:23;;;;;;;7.72;3.60;;;14.00;99.90;;;;;;5126280;27;20047;-62
2023/06/28 01:35:49;;;;;;;5.95;3.63;;;14.00;99.90;;;;;;5123510;27;20561;-61
2023/06/28 01:38:15;;;;;;;9.02;3.90;;;14.00;99.90;;;;;;5122997;27;20058;-62
2023/06/28 01:40:42;;;;;;;7.80;3.53;;;14.00;99.90;;;;;;5147635;27;20482;-61
2023/06/28 01:43:08;;;;;;;8.25;4.25;;;14.10;99.90;;;;;;5119715;27;20043;-62
2023/06/28 01:45:35;;;;;;;8.77;4.25;;;14.00;99.90;;;;;;5143441;27;20027;-61
2023/06/28 01:48:01;;;;;;;7.50;4.07;;;14.00;99.90;;;;;;5149771;27;20105;-60
2023/06/28 01:50:28;;;;;;;8.38;4.40;;;14.00;99.90;;;;;;5117730;27;20039;-62
2023/06/28 01:53:00;;;;;;;7.57;3.83;;;14.00;99.90;;;;;;5116796;27;20494;-61
2023/06/28 01:55:27;;;;;;;6.47;3.50;;;14.00;99.90;;;;;;5117495;27;20544;-62
2023/06/28 01:57:52;;;;;;;8.07;3.85;;;14.00;99.90;;;;;;5124809;27;20077;-60
2023/06/28 02:00:18;;;;;;;7.78;3.90;;;14.00;99.90;;;;;;5119627;27;20429;-62
2023/06/28 02:02:44;;;;;;;6.93;4.13;;;13.90;99.90;;;;;;5124540;27;20135;-62
2023/06/28 02:05:10;;;;;;;9.57;4.32;;;14.00;99.90;;;;;;5120257;27;20112;-62
2023/06/28 02:07:37;;;;;;;9.70;4.25;;;13.90;99.90;;;;;;5123646;27;20138;-62
2023/06/28 02:10:03;;;;;;;8.82;4.15;;;13.90;99.90;;;;;;5119508;27;20442;-62
2023/06/28 02:12:29;;;;;;;9.50;4.20;;;13.90;99.90;;;;;;5121451;27;20044;-62
2023/06/28 02:14:54;;;;;;;7.05;3.90;;;13.90;99.90;;;;;;5118694;27;20424;-63
2023/06/28 02:17:23;;;;;;;6.93;4.00;;;13.90;99.90;;;;;;5122037;27;20038;-61
2023/06/28 02:19:49;;;;;;;6.97;4.22;;;13.90;99.90;;;;;;5129187;27;20043;-62
2023/06/28 02:22:15;;;;;;;6.18;3.97;;;13.90;99.90;;;;;;5122564;27;20038;-61
2023/06/28 02:24:41;;;;;;;9.45;4.25;;;13.90;99.90;;;;;;5118244;27;20141;-62
2023/06/28 02:27:08;;;;;;;7.97;4.63;;;13.90;99.90;;;;;;5123243;27;20126;-61
2023/06/28 02:29:34;;;;;;;7.70;3.90;;;13.90;99.90;;;;;;5129434;27;20100;-62
2023/06/28 02:32:00;;;;;;;9.40;4.22;;;14.00;99.90;;;;;;5119591;27;20479;-61
2023/06/28 02:34:26;;;;;;;8.57;4.70;;;14.00;99.90;;;;;;5116586;27;20035;-61
2023/06/28 02:36:52;;;;;;;7.10;3.90;;;14.00;99.90;;;;;;5122967;27;20034;-62
2023/06/28 02:39:18;;;;;;;6.25;3.80;;;14.00;99.90;;;;;;5122111;27;20079;-62
2023/06/28 02:41:44;;;;;;;9.82;4.07;;;14.00;99.90;;;;;;5120031;27;20070;-61
2023/06/28 02:44:09;;;;;;;8.05;3.83;;;14.10;99.90;;;;;;5122797;27;20031;-61
2023/06/28 02:46:35;;;;;;;5.47;3.72;;;14.10;99.90;;;;;;5117649;27;20051;-62
2023/06/28 02:49:00;;;;;;;5.55;3.63;;;14.10;99.90;;;;;;5128719;27;20070;-63
2023/06/28 02:51:26;;;;;;;10.05;3.88;;;14.10;99.90;;;;;;5123521;27;20043;-61
2023/06/28 02:53:52;;;;;;;7.60;4.03;;;14.20;99.90;;;;;;5119376;27;20038;-62
2023/06/28 02:56:17;;;;;;;5.22;3.60;;;14.20;99.90;;;;;;5128790;27;20383;-62
2023/06/28 02:58:43;;;;;;;7.78;4.72;;;14.20;99.90;;;;;;5113803;27;20171;-63
2023/06/28 03:01:09;;;;;;;8.25;4.20;;;14.30;99.90;;;;;;5122659;27;20051;-62
2023/06/28 03:03:38;;;;;;;8.48;4.40;;;14.30;99.90;;;;;;5111729;27;20067;-60
2023/06/28 03:06:05;;;;;;;9.68;4.20;;;14.30;99.90;;;;;;5111492;28;20043;-60
2023/06/28 03:08:31;;;;;;;9.55;4.43;;;14.40;99.90;;;;;;5109654;28;20039;-61
2023/06/28 03:10:57;;;;;;;6.80;4.50;;;14.30;99.90;;;;;;5110214;28;20043;-61
2023/06/28 03:13:22;;;;;;;9.52;4.40;;;14.40;99.90;;;;;;5111027;28;20112;-61
2023/06/28 03:15:48;;;;;;;7.38;4.38;;;14.40;99.90;;;;;;5109958;28;20040;-62
2023/06/28 03:18:13;;;;;;;8.38;3.97;;;14.40;99.90;;;;;;5110058;28;20036;-62
2023/06/28 03:20:40;;;;;;;6.63;4.40;;;14.40;99.90;;;;;;5110680;28;20039;-62
2023/06/28 03:23:05;;;;;;;6.88;4.80;;;14.50;99.90;;;;;;5109580;28;20031;-61
2023/06/28 03:25:31;;;;;;;7.57;4.75;;;14.50;99.90;;;;;;5109426;28;20118;-61
2023/06/28 03:27:57;;;;;;;8.52;5.05;;;14.50;99.90;;;;;;5108520;28;20047;-61
2023/06/28 03:30:22;;;;;;;7.20;4.75;;;14.50;99.90;;;;;;5109483;28;20509;-61
2023/06/28 03:32:48;;;;;;;8.23;4.45;;;14.50;99.90;;;;;;5108420;28;20036;-61
2023/06/28 03:35:14;;;;;;;8.98;4.70;;;14.50;99.90;;;;;;5108646;28;20038;-60
2023/06/28 03:37:47;;;;;;;8.95;4.72;;;14.50;99.90;;;;;;5108782;28;20031;-61
2023/06/28 03:40:14;;;;;;;8.13;4.60;;;14.50;99.90;;;;;;5108377;28;20040;-61
2023/06/28 03:42:40;;;;;;;7.65;4.80;;;14.50;99.90;;;;;;5106277;28;20051;-61
2023/06/28 03:45:06;;;;;;;8.02;5.07;;;14.50;99.90;;;;;;5109475;28;20043;-61
2023/06/28 03:47:32;;;;;;;7.50;4.75;;;14.50;99.90;;;;;;5110684;28;20553;-62
2023/06/28 03:49:57;;;;;;;10.43;5.07;;;14.50;99.90;;;;;;5108962;28;20174;-61
2023/06/28 03:52:23;;;;;;;8.23;5.32;;;14.50;99.90;;;;;;5110436;28;20038;-61
2023/06/28 03:54:49;;;;;;;10.48;5.45;;;14.50;99.90;;;;;;5108835;28;20375;-60
2023/06/28 03:57:14;;;;;;;6.40;4.93;;;14.50;99.90;;;;;;5108636;28;20092;-62
2023/06/28 03:59:40;;;;;;;6.28;4.68;;;14.50;99.90;;;;;;5110298;28;20074;-61
2023/06/28 04:02:06;;;;;;;7.05;4.80;;;14.50;99.90;;;;;;5115134;27;20080;-61
2023/06/28 04:04:33;;;;;;;7.13;4.82;;;14.50;99.90;;;;;;5124714;27;20103;-62
2023/06/28 04:07:01;;;;;;;7.82;4.75;;;14.50;99.90;;;;;;5116497;27;20047;-62
2023/06/28 04:09:27;;;;;;;6.80;4.78;;;14.50;99.90;;;;;;5149522;27;20446;-60
2023/06/28 04:11:53;;;;;;;8.48;4.80;;;14.50;99.90;;;;;;5125519;27;20037;-62
2023/06/28 04:14:18;;;;;;;6.03;4.80;;;14.50;99.90;;;;;;5116748;27;20047;-61
2023/06/28 04:16:44;;;;;;;8.13;4.78;;;14.50;99.90;;;;;;5118662;27;20046;-61
2023/06/28 04:19:10;;;;;;;6.70;4.57;;;14.50;99.90;;;;;;5136959;27;20035;-62
2023/06/28 04:21:35;;;;;;;7.78;4.75;;;14.50;99.90;;;;;;5130146;27;20074;-62
2023/06/28 04:24:02;;;;;;;6.60;4.60;;;14.50;99.90;;;;;;5114145;27;20039;-61
2023/06/28 04:26:28;;;;;;;7.38;4.30;;;14.50;99.90;;;;;;5107058;27;20042;-60
2023/06/28 04:28:53;;;;;;;7.90;4.72;;;14.40;99.90;;;;;;5121609;28;20134;-62
2023/06/28 04:31:19;;;;;;;8.15;4.32;;;14.50;99.90;;;;;;5140614;27;20498;-61
2023/06/28 04:33:46;;;;;;;6.05;3.78;;;14.50;99.90;;;;;;5132691;27;20031;-62
2023/06/28 04:36:12;;;;;;;5.57;3.55;;;14.40;99.90;;;;;;5139804;27;20113;-60
2023/06/28 04:38:39;;;;;;;6.70;3.45;;;14.50;99.90;;;;;;5143422;27;20118;-61
2023/06/28 04:41:05;;;;;;;5.38;2.97;;;14.50;99.90;;;;;;5102555;27;20078;-61
2023/06/28 04:43:38;;;;;;;5.72;3.47;;;14.50;99.90;;;;;;5135836;27;20110;-61
2023/06/28 04:46:04;;;;;;;6.65;3.20;;;14.50;99.90;;;;;;5143344;27;20109;-61
2023/06/28 04:48:29;;;;;;;5.90;3.38;;;14.50;99.90;;;;;;5144794;27;20481;-61
2023/06/28 04:50:55;;;;;;;6.00;3.33;;;14.60;99.90;;;;;;5120624;27;20038;-61
2023/06/28 04:53:21;;;;;;;6.60;4.25;;;14.60;99.90;;;;;;5122467;27;20069;-61
2023/06/28 04:55:47;;;;;;;8.25;3.25;;;14.70;99.90;;;;;;5142056;27;20091;-62
2023/06/28 04:58:13;;;;;;;7.40;4.00;;;14.60;99.90;;;;;;5144204;27;20027;-62
2023/06/28 05:00:39;;;;;;;6.22;3.45;;;14.60;99.90;;;;;;5145056;27;20038;-61
2023/06/28 05:03:05;;;;;;;6.57;3.80;;;14.70;99.90;;;;;;5121774;27;20497;-60
2023/06/28 05:05:30;;;;;;;9.35;3.60;;;14.70;99.90;;;;;;5130514;27;20573;-62
2023/06/28 05:07:56;;;;;;;4.55;3.08;;;14.70;99.90;;;;;;5121582;27;20454;-60
2023/06/28 05:10:23;;;;;;;5.07;3.17;;;14.70;99.90;;;;;;5136104;27;20067;-61
2023/06/28 05:12:51;;;;;;;6.50;3.28;;;14.80;99.90;;;;;;5133437;27;20043;-62
2023/06/28 05:15:20;;;;;;;7.72;3.08;;;14.80;99.90;;;;;;5146337;27;20031;-61
2023/06/28 05:17:46;;;;;;;4.47;3.20;;;14.80;99.90;;;;;;5133625;27;20077;-63
2023/06/28 05:20:11;;;;;;;4.00;2.83;;;14.80;99.90;;;;;;5120193;27;20070;-62
2023/06/28 05:22:46;;;;;;;5.35;2.85;;;14.90;99.90;;;;;;5143399;27;20039;-61
2023/06/28 05:25:11;;;;;;;7.43;3.35;;;14.90;99.90;;;;;;5119314;27;20035;-62
2023/06/28 05:27:37;;;;;;;4.00;2.88;;;15.00;99.90;;;;;;5123701;27;20130;-61
2023/06/28 05:30:04;;;;;;;5.75;2.63;;;15.00;99.90;;;;;;5120639;27;20051;-61
2023/06/28 05:32:29;;;;;;;4.78;2.83;;;15.00;99.90;;;;;;5129371;27;20442;-61
2023/06/28 05:34:55;;;;;;;5.25;2.88;;;15.00;99.90;;;;;;5124343;27;20069;-62
2023/06/28 05:37:21;;;;;;;4.75;2.88;;;15.00;99.90;;;;;;5147755;27;20030;-61
2023/06/28 05:39:47;;;;;;;9.30;3.10;;;15.00;99.90;;;;;;5128150;27;20772;-62
2023/06/28 05:42:13;;;;;;;6.50;3.40;;;15.00;99.90;;;;;;5154743;27;20027;-60
2023/06/28 05:44:38;;;;;;;6.25;3.25;;;15.00;99.90;;;;;;5133638;27;20078;-62
2023/06/28 05:47:04;;;;;;;7.10;3.40;;;14.90;99.90;;;;;;5135327;27;20081;-60
2023/06/28 05:49:31;;;;;;;7.55;3.70;;;15.00;99.90;;;;;;5147121;27;20077;-62
2023/06/28 05:51:57;;;;;;;5.95;3.40;;;14.90;99.90;;;;;;5134472;27;20043;-62
2023/06/28 05:54:23;;;;;;;7.90;3.42;;;15.00;99.90;;;;;;5122932;27;20038;-60
2023/06/28 05:56:48;;;;;;;7.38;4.18;;;15.10;99.90;;;;;;5127834;27;20127;-62
2023/06/28 05:59:14;;;;;;;9.10;4.43;;;15.10;99.90;;;;;;5133630;27;20505;-62
2023/06/28 06:01:39;;;;;;;8.75;4.22;;;15.10;99.90;;;;;;5139896;27;20042;-61
2023/06/28 06:04:05;;;;;;;8.35;4.88;;;15.10;99.90;;;;;;5126451;27;20150;-61
2023/06/28 06:06:31;;;;;;;8.68;4.40;;;15.10;99.90;;;;;;5139187;27;20097;-60
2023/06/28 06:08:57;;;;;;;7.38;4.75;;;15.10;99.90;;;;;;5142539;27;20078;-61
2023/06/28 06:11:23;;;;;;;7.55;4.78;;;15.10;99.90;;;;;;5151441;27;20442;-62
2023/06/28 06:13:48;;;;;;;8.25;4.82;;;15.10;99.90;;;;;;5138551;27;20366;-61
2023/06/28 06:16:14;;;;;;;7.30;4.93;;;15.10;99.90;;;;;;5123753;27;20088;-62
2023/06/28 06:18:41;;;;;;;10.30;4.70;;;15.20;99.90;;;;;;5123203;27;20039;-62
2023/06/28 06:21:07;;;;;;;7.38;4.90;;;15.20;99.90;;;;;;5142441;27;20035;-61
2023/06/28 06:23:32;;;;;;;7.75;4.82;;;15.30;99.90;;;;;;5141739;27;20089;-61
2023/06/28 06:25:58;;;;;;;9.82;5.40;;;15.20;99.90;;;;;;5128613;27;20499;-62
2023/06/28 06:28:23;;;;;;;7.13;5.05;;;15.20;99.90;;;;;;5127254;27;20038;-61
2023/06/28 06:30:49;;;;;;;10.18;5.20;;;15.30;99.90;;;;;;5128173;27;20073;-61
2023/06/28 06:33:15;;;;;;;8.52;5.35;;;15.30;99.90;;;;;;5122306;27;20463;-62
2023/06/28 06:35:40;;;;;;;8.90;4.60;;;15.30;99.90;;;;;;5141236;27;20460;-61
2023/06/28 06:38:06;;;;;;;7.10;5.20;;;15.30;99.90;;;;;;5118302;27;20031;-61
2023/06/28 06:40:33;;;;;;;11.38;6.03;;;15.30;99.90;;;;;;5124981;27;20125;-62
2023/06/28 06:42:59;;;;;;;10.65;5.60;;;15.30;99.90;;;;;;5143349;27;20533;-61
2023/06/28 06:45:24;;;;;;;9.57;5.22;;;15.30;99.90;;;;;;5124949;27;20129;-61
2023/06/28 06:47:50;;;;;;;8.48;4.90;;;15.30;99.90;;;;;;5147560;27;20026;-60
2023/06/28 06:50:18;;;;;;;10.70;5.45;;;15.20;99.90;;;;;;5148682;27;20113;-61
2023/06/28 06:52:44;;;;;;;10.02;5.35;;;15.20;99.90;;;;;;5126521;27;20042;-61
2023/06/28 06:55:10;;;;;;;9.75;5.82;;;15.20;99.90;;;;;;5142651;27;20043;-60
2023/06/28 06:57:36;;;;;;;9.15;5.60;;;15.20;99.90;;;;;;5125928;27;20046;-61
2023/06/28 07:00:04;;;;;;;9.40;5.57;;;15.20;99.90;;;;;;5148339;27;20493;-60
2023/06/28 07:02:29;;;;;;;9.68;5.85;;;15.20;99.90;;;;;;5142122;27;20118;-62
2023/06/28 07:04:55;;;;;;;10.40;5.15;;;15.20;99.90;;;;;;5144733;27;20038;-60
2023/06/28 07:07:21;;;;;;;13.50;6.28;;;15.20;99.90;;;;;;5145569;27;20031;-60
2023/06/28 07:09:46;;;;;;;9.68;6.28;;;15.20;99.90;;;;;;5142914;27;20071;-61
2023/06/28 07:12:12;;;;;;;11.85;6.35;;;15.30;99.90;;;;;;5138814;27;20118;-61
2023/06/28 07:14:38;;;;;;;9.40;5.47;;;15.30;99.90;;;;;;5125808;27;20054;-61
2023/06/28 07:17:03;;;;;;;11.02;6.45;;;15.30;99.90;;;;;;5124294;27;20078;-60
2023/06/28 07:19:29;;;;;;;12.65;6.90;;;15.40;99.90;;;;;;5115026;27;20038;-61
2023/06/28 07:21:55;;;;;;;10.32;6.10;;;15.40;99.90;;;;;;5124641;27;20035;-61
2023/06/28 07:24:20;;;;;;;8.80;6.28;;;15.40;99.90;;;;;;5141157;27;20039;-60
2023/06/28 07:26:46;;;;;;;10.63;5.97;;;15.40;99.90;;;;;;5141838;27;20195;-61
2023/06/28 07:29:12;;;;;;;10.15;6.03;;;15.40;99.90;;;;;;5142304;27;20049;-61
2023/06/28 07:31:38;;;;;;;9.57;5.85;;;15.40;99.90;;;;;;5120240;27;20103;-60
2023/06/28 07:34:06;;;;;;;12.85;6.43;;;15.40;99.90;;;;;;5142132;27;20066;-61
2023/06/28 07:36:32;;;;;;;10.55;6.28;;;15.40;99.90;;;;;;5127360;27;20081;-60
2023/06/28 07:38:58;;;;;;;9.60;6.82;;;15.40;99.90;;;;;;5141205;27;20470;-61
2023/06/28 07:41:24;;;;;;;14.60;7.03;;;15.40;99.90;;;;;;5124041;27;20053;-62
2023/06/28 07:43:49;;;;;;;11.93;6.70;;;15.40;99.90;;;;;;5118419;27;20074;-62
2023/06/28 07:46:16;;;;;;;9.52;6.40;;;15.40;99.90;;;;;;5135573;27;20039;-61
2023/06/28 07:48:41;;;;;;;13.35;6.40;;;15.50;99.90;;;;;;5126105;27;20525;-62
2023/06/28 07:51:07;;;;;;;9.82;6.07;;;15.50;99.90;;;;;;5133490;27;20114;-61
2023/06/28 07:53:33;;;;;;;9.50;6.03;;;15.50;99.90;;;;;;5132807;27;20034;-60
2023/06/28 07:55:59;;;;;;;11.50;6.85;;;15.50;99.90;;;;;;5117086;27;20035;-60
2023/06/28 07:58:25;;;;;;;12.25;6.78;;;15.60;99.90;;;;;;5145098;27;20034;-61
2023/06/28 08:00:51;;;;;;;12.63;7.22;;;15.60;99.90;;;;;;5126292;27;20545;-60
2023/06/28 08:03:17;;;;;;;12.07;7.20;;;15.70;99.90;;;;;;5145728;27;20055;-60
2023/06/28 08:05:44;;;;;;;10.68;6.60;;;15.70;99.90;;;;;;5140711;27;20094;-61
2023/06/28 08:08:09;;;;;;;9.02;6.43;;;15.70;99.90;;;;;;5126000;27;20049;-61
2023/06/28 08:10:35;;;;;;;11.23;6.75;;;15.80;99.90;;;;;;5126463;27;20039;-61
2023/06/28 08:13:00;;;;;;;9.38;5.95;;;15.80;99.90;;;;;;5144804;27;20394;-61
2023/06/28 08:15:26;;;;;;;11.80;6.88;;;15.70;99.90;;;;;;5124461;27;20031;-61
2023/06/28 08:17:52;;;;;;;9.60;6.45;;;15.80;99.90;;;;;;5125177;27;20118;-60
2023/06/28 08:20:17;;;;;;;8.00;5.90;;;15.80;99.90;;;;;;5142753;27;20042;-60
2023/06/28 08:22:43;;;;;;;11.02;6.93;;;15.80;99.90;;;;;;5125403;27;20421;-60
2023/06/28 08:25:09;;;;;;;12.00;6.60;;;15.90;99.90;;;;;;5121590;27;20110;-61
2023/06/28 08:27:36;;;;;;;11.35;7.57;;;15.80;99.90;;;;;;5128587;27;20090;-60
2023/06/28 08:30:01;;;;;;;11.32;6.93;;;15.90;99.90;;;;;;5136369;27;20035;-61
2023/06/28 08:32:27;;;;;;;11.63;6.90;;;15.90;99.90;;;;;;5123093;27;20164;-61
2023/06/28 08:34:52;;;;;;;13.57;7.57;;;15.90;99.90;;;;;;5124980;27;20050;-61
2023/06/28 08:37:18;;;;;;;11.85;7.18;;;15.90;99.90;;;;;;5123741;27;20027;-61
2023/06/28 08:39:44;;;;;;;13.73;7.55;;;15.90;99.90;;;;;;5143981;27;20431;-61
2023/06/28 08:42:09;;;;;;;12.38;7.38;;;15.80;99.90;;;;;;5147144;27;20039;-62
2023/06/28 08:44:37;;;;;;;13.82;7.13;;;15.90;99.90;;;;;;5151091;27;20054;-60
2023/06/28 08:47:03;;;;;;;14.38;7.88;;;15.90;99.90;;;;;;5145294;27;20422;-61
2023/06/28 08:49:30;;;;;;;13.52;7.47;;;15.90;99.90;;;;;;5130651;27;20121;-62
2023/06/28 08:51:57;;;;;;;10.75;6.70;;;15.90;99.90;;;;;;5114323;27;20127;-61
2023/06/28 08:54:27;;;;;;;14.15;9.02;;;16.00;99.90;;;;;;5143828;27;20039;-59
2023/06/28 08:56:56;;;;;;;14.80;8.30;;;16.00;99.90;;;;;;5125812;27;20039;-59
2023/06/28 08:59:22;;;;;;;12.23;8.38;;;16.00;99.90;;;;;;5124363;27;20477;-61
2023/06/28 09:01:50;;;;;;;13.35;8.38;;;16.00;99.90;;;;;;5155108;27;20122;-60
2023/06/28 09:04:17;;;;;;;15.70;9.02;;;16.00;99.90;;;;;;5128655;27;20051;-61
2023/06/28 09:06:42;;;;;;;15.68;9.48;;;16.10;99.90;;;;;;5146012;27;20121;-61
2023/06/28 09:09:09;;;;;;;15.27;9.55;;;16.10;99.90;;;;;;5144493;27;20150;-62
2023/06/28 09:11:36;;;;;;;15.23;8.88;;;16.10;99.90;;;;;;5129424;27;20043;-61
2023/06/28 09:14:02;;;;;;;14.20;9.25;;;16.10;99.90;;;;;;5145925;27;20082;-60
2023/06/28 09:16:29;;;;;;;15.40;9.50;;;16.10;99.90;;;;;;5143032;27;20430;-60
2023/06/28 09:18:54;;;;;;;11.05;8.05;;;16.10;99.90;;;;;;5127158;27;20046;-61
2023/06/28 09:21:25;;;;;;;14.02;9.05;;;16.10;99.90;;;;;;5142975;27;20027;-61
2023/06/28 09:23:50;;;;;;;15.75;10.05;;;16.10;99.90;;;;;;5149813;27;20509;-61
2023/06/28 09:26:16;;;;;;;19.60;10.98;;;16.20;99.90;;;;;;5154579;27;20078;-62
2023/06/28 09:28:42;;;;;;;13.45;9.25;;;16.20;99.90;;;;;;5130550;27;20566;-62
2023/06/28 09:31:08;;;;;;;16.17;10.20;;;16.20;99.90;;;;;;5134722;27;20034;-61
2023/06/28 09:33:33;;;;;;;16.23;9.85;;;16.20;99.90;;;;;;5128357;27;20114;-61
2023/06/28 09:36:02;;;;;;;13.43;9.60;;;16.30;99.90;;;;;;5124552;27;20041;-61
2023/06/28 09:38:28;;;;;;;15.57;9.80;;;16.30;99.90;;;;;;5112027;27;20035;-61
2023/06/28 09:41:01;;;;;;;12.95;9.38;;;16.30;99.90;;;;;;5130518;27;20095;-61
2023/06/28 09:43:32;;;;;;;15.98;11.20;;;16.30;99.90;;;;;;5150424;27;20041;-60
2023/06/28 09:46:13;;;;;;;17.92;10.43;;;16.30;99.90;;;;;;5149469;27;20528;-61
2023/06/28 09:48:48;;;;;;;15.93;10.32;;;16.30;99.90;;;;;;5127686;27;20469;-61
2023/06/28 09:51:18;;;;;;;11.85;9.45;;;16.30;99.90;;;;;;5116135;27;20079;-61
2023/06/28 09:53:54;;;;;;;13.63;9.30;;;16.30;99.90;;;;;;5145901;27;20039;-61
2023/06/28 09:56:40;;;;;;;11.75;9.80;;;16.30;99.90;;;;;;5131125;27;20114;-61
2023/06/28 09:59:08;;;;;;;14.55;9.57;;;16.30;99.90;;;;;;5131382;27;20034;-61
2023/06/28 10:01:39;;;;;;;13.32;9.73;;;16.40;99.90;;;;;;5135282;27;20039;-61
2023/06/28 10:04:08;;;;;;;15.65;10.02;;;16.40;99.90;;;;;;5152780;27;20120;-61
2023/06/28 10:06:36;;;;;;;13.38;9.85;;;16.30;99.90;;;;;;5113677;27;20046;-61
2023/06/28 10:09:02;;;;;;;13.50;10.18;;;16.40;99.90;;;;;;5153278;27;20050;-60
2023/06/28 10:11:31;;;;;;;11.43;9.27;;;16.40;99.90;;;;;;5130628;27;20038;-61
2023/06/28 10:13:58;;;;;;;11.80;9.98;;;16.50;99.90;;;;;;5144754;27;20039;-59
2023/06/28 10:16:26;;;;;;;14.65;9.80;;;16.60;99.90;;;;;;5130086;27;20047;-61
2023/06/28 10:18:52;;;;;;;13.52;9.85;;;16.70;99.90;;;;;;5146414;27;20035;-62
2023/06/28 10:21:18;;;;;;;11.48;10.02;;;16.70;99.90;;;;;;5127163;27;20096;-61
2023/06/28 10:23:45;;;;;;;11.57;9.48;;;16.80;99.90;;;;;;5139171;27;20102;-61
2023/06/28 10:26:13;;;;;;;11.73;10.00;;;16.90;99.90;;;;;;5148354;27;20034;-61
2023/06/28 10:28:40;;;;;;;10.43;9.35;;;17.00;99.90;;;;;;5126207;27;20404;-61
2023/06/28 10:31:07;;;;;;;9.75;8.68;;;17.10;99.90;;;;;;5129167;27;20085;-60
2023/06/28 10:33:36;;;;;;;11.02;9.98;;;17.20;99.90;;;;;;5144383;27;20469;-61
2023/06/28 10:36:03;;;;;;;11.40;10.23;;;17.20;99.90;;;;;;5129757;27;20039;-60
2023/06/28 10:38:51;;;;;;;11.88;10.32;;;17.30;99.90;;;;;;5129755;27;20062;-61
2023/06/28 10:41:17;;;;;;;13.27;10.20;;;17.30;99.90;;;;;;5148269;27;20027;-61
2023/06/28 10:43:44;;;;;;;10.40;9.30;;;17.40;99.90;;;;;;5140197;27;20084;-61
2023/06/28 10:46:26;;;;;;;11.75;10.30;;;17.40;99.90;;;;;;5147334;27;20043;-61
2023/06/28 10:48:53;;;;;;;;;;;17.40;99.90;;;;;;5142207;27;20398;-61
2023/06/28 10:51:25;;;;;;;12.52;11.23;;;17.40;99.90;;;;;;5150823;27;20001;-61
2023/06/28 10:54:09;;;;;;;13.40;11.38;;;17.30;99.90;;;;;;5138466;27;20053;-61
2023/06/28 10:56:44;;;;;;;11.82;10.48;;;17.30;99.90;;;;;;5139143;27;20533;-61
2023/06/28 10:59:09;;;;;;;12.75;11.38;;;17.30;99.90;;;;;;5123526;27;20126;-62
2023/06/28 11:01:38;;;;;;;13.05;11.68;;;17.30;99.90;;;;;;5123687;27;20126;-61
2023/06/28 11:04:21;;;;;;;14.60;12.43;;;17.30;99.90;;;;;;5126328;27;20055;-61
2023/06/28 11:07:08;;;;;;;13.75;12.32;;;17.20;99.90;;;;;;5125595;27;20039;-61
2023/06/28 11:09:34;;;;;;;16.02;14.32;;;17.20;99.90;;;;;;5143592;27;20504;-61
2023/06/28 11:12:00;;;;;;;15.90;13.70;;;17.10;99.90;;;;;;5125121;27;20043;-62
2023/06/28 11:14:31;;;;;;;15.63;14.05;;;17.20;99.90;;;;;;5143564;27;20045;-61
2023/06/28 11:17:11;;;;;;;15.60;13.93;;;17.10;99.90;;;;;;5131795;27;20057;-61
2023/06/28 11:19:39;;;;;;;15.82;14.32;;;17.10;99.90;;;;;;5144398;27;20129;-61
2023/06/28 11:22:04;;;;;;;15.13;13.63;;;17.10;99.90;;;;;;5121675;27;20485;-61
2023/06/28 11:24:33;;;;;;;16.27;14.65;;;17.10;99.90;;;;;;5147601;27;20094;-60
2023/06/28 11:27:00;;;;;;;15.80;14.25;;;17.10;99.90;;;;;;5125408;27;20034;-61
2023/06/28 11:29:26;;;;;;;18.60;15.27;;;17.10;99.90;;;;;;5142755;27;20033;-62
2023/06/28 11:31:57;;;;;;;17.08;15.18;;;17.10;99.90;;;;;;5150187;27;20043;-62
2023/06/28 11:34:23;;;;;;;19.02;15.35;;;17.10;99.90;;;;;;5124618;27;20127;-62
2023/06/28 11:36:51;;;;;;;18.33;15.73;;;17.10;99.90;;;;;;5146350;27;20035;-61
2023/06/28 11:39:22;;;;;;;17.55;15.75;;;17.10;99.90;;;;;;5147037;27;20046;-61
2023/06/28 11:41:48;;;;;;;18.40;16.05;;;17.10;99.90;;;;;;5105349;27;20050;-61
2023/06/28 11:44:14;;;;;;;19.42;15.98;;;17.20;99.90;;;;;;5125906;27;20046;-62
2023/06/28 11:46:41;;;;;;;19.90;15.82;;;17.20;99.90;;;;;;5146931;27;20070;-61
2023/06/28 11:49:08;;;;;;;20.52;16.63;;;17.20;99.90;;;;;;5143124;27;20046;-61
2023/06/28 11:51:35;;;;;;;24.67;17.80;;;17.30;99.90;;;;;;5128495;27;20094;-61
2023/06/28 11:54:01;;;;;;;20.27;16.52;;;17.40;99.90;;;;;;5144097;27;20388;-61
2023/06/28 11:56:41;;;;;;;20.23;16.67;;;17.40;99.90;;;;;;5141423;27;20055;-61
2023/06/28 11:59:14;;;;;;;22.73;17.15;;;17.60;99.90;;;;;;5143259;27;20493;-62
2023/06/28 12:01:39;;;;;;;24.27;16.95;;;17.70;99.90;;;;;;5121025;27;20046;-62
2023/06/28 12:04:19;;;;;;;24.35;16.60;;;17.80;99.90;;;;;;5147760;27;20047;-61
2023/06/28 12:06:46;;;;;;;24.73;15.75;;;17.90;99.90;;;;;;5145890;27;20042;-62
2023/06/28 12:09:23;;;;;;;21.23;16.48;;;17.90;99.90;;;;;;5124918;27;20050;-62
2023/06/28 12:11:53;;;;;;;24.10;16.73;;;18.00;99.90;;;;;;5139173;27;20477;-61
2023/06/28 12:14:21;;;;;;;24.45;16.80;;;18.00;99.90;;;;;;5125041;27;20430;-62
2023/06/28 12:16:47;;;;;;;25.27;17.05;;;18.00;99.90;;;;;;5146571;27;20555;-61
2023/06/28 12:19:16;;;;;;;22.38;15.50;;;18.00;99.90;;;;;;5130650;27;20045;-61
2023/06/28 12:21:42;;;;;;;19.60;15.65;;;18.00;99.90;;;;;;5146747;27;20031;-61
2023/06/28 12:24:16;;;;;;;25.45;17.20;;;18.00;99.90;;;;;;5120351;27;20039;-62
2023/06/28 12:26:48;;;;;;;23.13;15.70;;;18.00;99.90;;;;;;5132858;27;20163;-62
2023/06/28 12:29:18;;;;;;;20.98;15.95;;;17.90;99.90;;;;;;5122388;27;20580;-62
2023/06/28 12:31:47;;;;;;;23.42;16.83;;;17.90;99.90;;;;;;5146553;27;20374;-62
2023/06/28 12:34:33;;;;;;;22.92;16.38;;;17.90;99.90;;;;;;5140613;27;20047;-62
2023/06/28 12:37:03;;;;;;;21.38;15.10;;;18.00;99.90;;;;;;5138614;27;20038;-61
2023/06/28 12:39:31;;;;;;;22.60;14.88;;;18.10;99.90;;;;;;5143824;27;20088;-61